createdAt,value
2017-10-17T00:00:08.232Z,17.40
2017-10-17T00:02:37.318Z,17.40
2017-10-17T00:05:05.632Z,17.40
2017-10-17T00:07:34.336Z,17.40
2017-10-17T00:10:03.055Z,17.30
2017-10-17T00:12:31.618Z,17.30
2017-10-17T00:15:00.009Z,17.30
2017-10-17T00:17:28.320Z,17.20
2017-10-17T00:19:56.835Z,17.20
2017-10-17T00:22:26.009Z,17.10
2017-10-17T00:25:00.593Z,17.10
2017-10-17T00:27:29.093Z,17.10
2017-10-17T00:29:57.708Z,17.10
2017-10-17T00:32:26.651Z,17.00
2017-10-17T00:34:55.365Z,17.00
2017-10-17T00:37:23.681Z,17.00
2017-10-17T00:39:52.017Z,16.90
2017-10-17T00:42:20.608Z,16.90
2017-10-17T00:44:48.991Z,16.90
2017-10-17T00:47:17.314Z,16.90
2017-10-17T00:49:45.949Z,16.90
2017-10-17T00:52:15.158Z,16.90
2017-10-17T00:54:43.598Z,16.90
2017-10-17T00:57:12.242Z,16.90
2017-10-17T00:59:40.939Z,16.90
2017-10-17T01:02:09.331Z,16.90
2017-10-17T01:04:37.912Z,16.90
2017-10-17T01:07:06.485Z,16.90
2017-10-17T01:09:34.979Z,16.90
2017-10-17T01:12:03.453Z,16.80
2017-10-17T01:14:31.757Z,16.80
2017-10-17T01:17:00.339Z,16.80
2017-10-17T01:19:28.691Z,16.80
2017-10-17T01:21:57.297Z,16.80
2017-10-17T01:24:25.893Z,16.70
2017-10-17T01:26:54.364Z,16.70
2017-10-17T01:29:26.145Z,16.70
2017-10-17T01:31:54.952Z,16.70
2017-10-17T01:34:27.783Z,16.70
2017-10-17T01:36:57.113Z,16.60
2017-10-17T01:39:25.415Z,16.60
2017-10-17T01:41:55.281Z,16.60
2017-10-17T01:44:34.943Z,16.50
2017-10-17T01:47:08.659Z,16.50
2017-10-17T01:49:42.484Z,16.50
2017-10-17T01:52:14.392Z,16.50
2017-10-17T01:57:46.777Z,16.40
2017-10-17T02:00:18.473Z,16.40
2017-10-17T02:02:46.775Z,16.40
2017-10-17T02:05:15.111Z,16.40
2017-10-17T02:07:45.780Z,16.40
2017-10-17T02:10:29.060Z,16.40
2017-10-17T02:12:59.050Z,16.30
2017-10-17T02:15:27.350Z,16.30
2017-10-17T02:18:03.039Z,16.30
2017-10-17T02:20:31.476Z,16.20
2017-10-17T02:23:00.038Z,16.20
2017-10-17T02:25:34.898Z,16.20
2017-10-17T02:28:15.676Z,16.20
2017-10-17T02:30:46.233Z,16.10
2017-10-17T02:33:14.549Z,16.10
2017-10-17T02:35:43.131Z,16.10
2017-10-17T02:38:12.076Z,16.00
2017-10-17T02:40:44.631Z,16.00
2017-10-17T02:43:18.181Z,16.00
2017-10-17T02:45:46.654Z,15.90
2017-10-17T02:51:08.469Z,15.90
2017-10-17T02:53:37.702Z,15.90
2017-10-17T02:56:06.018Z,15.80
2017-10-17T02:58:34.334Z,15.90
2017-10-17T03:01:15.268Z,15.80
2017-10-17T03:03:47.003Z,15.80
2017-10-17T03:06:15.596Z,15.80
2017-10-17T03:08:43.942Z,15.80
2017-10-17T03:11:13.018Z,15.80
2017-10-17T03:13:50.459Z,15.70
2017-10-17T03:16:18.841Z,15.80
2017-10-17T03:18:47.144Z,15.70
2017-10-17T03:21:15.466Z,15.70
2017-10-17T03:23:47.407Z,15.70
2017-10-17T03:26:15.740Z,15.70
2017-10-17T03:28:49.581Z,15.60
2017-10-17T03:31:19.637Z,15.60
2017-10-17T03:33:47.963Z,15.60
2017-10-17T03:36:24.844Z,15.60
2017-10-17T03:38:54.134Z,15.60
2017-10-17T03:41:33.227Z,15.50
2017-10-17T03:46:58.032Z,15.50
2017-10-17T03:49:38.081Z,15.50
2017-10-17T03:52:21.718Z,15.50
2017-10-17T03:54:51.000Z,15.50
2017-10-17T03:57:20.914Z,15.50
2017-10-17T03:59:53.759Z,15.40
2017-10-17T04:02:22.089Z,15.40
2017-10-17T04:08:21.152Z,15.40
2017-10-17T04:11:27.896Z,15.40
2017-10-17T04:17:28.697Z,15.30
2017-10-17T04:23:22.581Z,15.30
2017-10-17T04:25:57.913Z,15.30
2017-10-17T04:28:45.218Z,15.20
2017-10-17T04:31:21.836Z,15.20
2017-10-17T04:34:18.520Z,15.20
2017-10-17T04:36:51.263Z,15.20
2017-10-17T04:39:19.582Z,15.20
2017-10-17T04:41:56.539Z,15.20
2017-10-17T04:58:06.277Z,15.00
2017-10-17T05:00:34.784Z,15.00
2017-10-17T05:06:11.625Z,14.90
2017-10-17T05:08:51.093Z,14.90
2017-10-17T05:11:25.146Z,14.90
2017-10-17T05:14:27.203Z,14.90
2017-10-17T05:17:08.890Z,14.90
2017-10-17T05:33:31.956Z,14.80
2017-10-17T05:36:01.044Z,14.70
2017-10-17T05:38:30.298Z,14.70
2017-10-17T05:40:58.756Z,14.70
2017-10-17T05:43:39.411Z,14.70
2017-10-17T05:46:07.873Z,14.70
2017-10-17T05:48:36.978Z,14.60
2017-10-17T05:54:01.324Z,14.60
2017-10-17T05:56:29.665Z,14.60
2017-10-17T05:58:58.000Z,14.60
2017-10-17T06:01:26.339Z,14.60
2017-10-17T06:03:54.630Z,14.60
2017-10-17T06:06:22.948Z,14.50
2017-10-17T06:08:51.289Z,14.60
2017-10-17T06:11:20.250Z,14.50
2017-10-17T06:13:49.320Z,14.50
2017-10-17T06:16:17.654Z,14.50
2017-10-17T06:18:45.964Z,14.50
2017-10-17T06:21:14.268Z,14.50
2017-10-17T06:23:42.578Z,14.50
2017-10-17T06:26:11.672Z,14.50
2017-10-17T06:28:40.749Z,14.40
2017-10-17T06:31:09.474Z,14.50
2017-10-17T06:33:38.558Z,14.50
2017-10-17T06:36:07.659Z,14.40
2017-10-17T06:38:36.738Z,14.50
2017-10-17T06:41:05.072Z,14.50
2017-10-17T06:43:33.399Z,14.50
2017-10-17T06:46:01.710Z,14.50
2017-10-17T06:48:30.784Z,14.50
2017-10-17T06:50:59.886Z,14.50
2017-10-17T06:53:28.209Z,14.50
2017-10-17T06:55:56.529Z,14.50
2017-10-17T06:58:24.831Z,14.50
2017-10-17T07:00:53.149Z,14.50
2017-10-17T07:03:21.478Z,14.50
2017-10-17T07:05:49.810Z,14.50
2017-10-17T07:08:18.116Z,14.50
2017-10-17T07:10:46.460Z,14.50
2017-10-17T07:13:15.552Z,14.60
2017-10-17T07:15:44.638Z,14.60
2017-10-17T07:18:12.960Z,14.60
2017-10-17T07:20:41.271Z,14.60
2017-10-17T07:23:09.614Z,14.60
2017-10-17T07:25:37.925Z,14.60
2017-10-17T07:28:06.250Z,14.70
2017-10-17T07:30:35.337Z,14.70
2017-10-17T07:33:03.665Z,14.70
2017-10-17T07:35:31.973Z,14.70
2017-10-17T07:38:00.306Z,14.80
2017-10-17T07:40:29.390Z,14.80
2017-10-17T07:42:58.469Z,14.90
2017-10-17T07:45:26.797Z,14.80
2017-10-17T07:47:55.104Z,14.90
2017-10-17T07:50:23.420Z,14.90
2017-10-17T07:52:51.760Z,15.00
2017-10-17T07:55:20.071Z,15.00
2017-10-17T07:57:48.392Z,15.00
2017-10-17T08:00:16.723Z,15.00
2017-10-17T08:02:45.033Z,15.10
2017-10-17T08:05:13.383Z,15.10
2017-10-17T08:07:41.719Z,15.10
2017-10-17T08:10:10.018Z,15.20
2017-10-17T08:12:38.336Z,15.20
2017-10-17T08:15:06.642Z,15.20
2017-10-17T08:17:34.969Z,15.30
2017-10-17T08:20:03.342Z,15.30
2017-10-17T08:22:31.652Z,15.40
2017-10-17T08:25:00.789Z,15.40
2017-10-17T08:27:29.199Z,15.40
2017-10-17T08:29:57.518Z,15.40
2017-10-17T08:32:25.868Z,15.40
2017-10-17T08:34:54.180Z,15.50
2017-10-17T08:37:22.491Z,15.50
2017-10-17T08:39:50.802Z,15.50
2017-10-17T08:42:19.117Z,15.60
2017-10-17T08:44:47.435Z,15.60
2017-10-17T08:47:16.531Z,15.70
2017-10-17T08:49:44.837Z,15.70
2017-10-17T08:52:15.453Z,15.80
2017-10-17T08:54:44.529Z,15.80
2017-10-17T08:57:12.857Z,15.80
2017-10-17T08:59:41.953Z,15.90
2017-10-17T09:02:10.272Z,15.90
2017-10-17T09:04:38.616Z,16.00
2017-10-17T09:07:06.947Z,16.00
2017-10-17T09:09:36.115Z,16.10
2017-10-17T09:12:04.501Z,16.10
2017-10-17T09:14:32.819Z,16.10
2017-10-17T09:17:01.147Z,16.20
2017-10-17T09:19:29.469Z,16.20
2017-10-17T09:21:57.761Z,16.30
2017-10-17T09:24:26.071Z,16.30
2017-10-17T09:26:55.166Z,16.40
2017-10-17T09:29:23.482Z,16.30
2017-10-17T09:31:51.802Z,16.40
2017-10-17T09:34:20.099Z,16.40
2017-10-17T09:36:48.416Z,16.50
2017-10-17T09:39:17.589Z,16.50
2017-10-17T09:41:46.659Z,16.60
2017-10-17T09:44:14.969Z,16.60
2017-10-17T09:46:44.049Z,16.60
2017-10-17T09:49:12.387Z,16.60
2017-10-17T09:51:40.689Z,16.70
2017-10-17T09:54:09.022Z,16.70
2017-10-17T09:56:37.364Z,16.70
2017-10-17T09:59:05.671Z,16.80
2017-10-17T10:01:33.987Z,16.80
2017-10-17T10:04:02.287Z,16.80
2017-10-17T10:06:30.610Z,16.80
2017-10-17T10:08:58.981Z,16.80
2017-10-17T10:11:27.317Z,16.90
2017-10-17T10:13:55.636Z,16.90
2017-10-17T10:16:23.964Z,16.90
2017-10-17T10:18:53.003Z,16.90
2017-10-17T10:21:21.361Z,17.00
2017-10-17T10:23:49.683Z,17.00
2017-10-17T10:26:18.006Z,17.10
2017-10-17T10:28:46.341Z,17.10
2017-10-17T10:31:14.661Z,17.10
2017-10-17T10:33:43.750Z,17.10
2017-10-17T10:36:12.861Z,17.10
2017-10-17T10:38:41.943Z,17.10
2017-10-17T10:41:10.265Z,17.10
2017-10-17T10:43:38.673Z,17.10
2017-10-17T10:46:07.001Z,17.10
2017-10-17T10:48:36.090Z,17.10
2017-10-17T10:51:04.408Z,17.10
2017-10-17T10:53:32.690Z,17.10
2017-10-17T10:56:01.004Z,17.10
2017-10-17T10:58:29.320Z,17.10
2017-10-17T11:00:58.377Z,17.10
2017-10-17T11:03:26.698Z,17.10
2017-10-17T11:05:55.776Z,17.10
2017-10-17T11:08:24.093Z,17.10
2017-10-17T11:10:52.466Z,17.10
2017-10-17T11:13:20.832Z,17.10
2017-10-17T11:15:49.173Z,17.10
2017-10-17T11:18:17.485Z,17.10
2017-10-17T11:20:45.829Z,17.10
2017-10-17T11:23:14.914Z,17.00
2017-10-17T11:25:43.221Z,17.00
2017-10-17T11:28:12.282Z,17.00
2017-10-17T11:30:40.592Z,17.00
2017-10-17T11:33:08.897Z,17.10
2017-10-17T11:35:37.242Z,17.10
2017-10-17T11:38:05.633Z,17.10
2017-10-17T11:40:51.841Z,17.10
2017-10-17T11:43:37.913Z,17.10
2017-10-17T11:46:06.253Z,17.20
2017-10-17T11:48:34.591Z,17.10
2017-10-17T11:51:02.917Z,17.10
2017-10-17T11:53:32.024Z,17.10
2017-10-17T11:56:00.469Z,17.00
2017-10-17T11:58:28.802Z,17.10
2017-10-17T12:00:57.123Z,17.10
2017-10-17T12:03:25.409Z,17.10
2017-10-17T12:05:53.747Z,17.10
2017-10-17T12:08:22.058Z,17.00
2017-10-17T12:10:50.413Z,17.10
2017-10-17T12:13:18.739Z,17.10
2017-10-17T12:15:47.040Z,17.10
2017-10-17T12:18:16.137Z,17.00
2017-10-17T12:20:44.483Z,17.00
2017-10-17T12:23:12.788Z,17.00
2017-10-17T12:25:41.146Z,17.00
2017-10-17T12:28:09.465Z,17.00
2017-10-17T12:30:37.790Z,17.00
2017-10-17T12:33:06.121Z,17.00
2017-10-17T12:35:34.432Z,17.00
2017-10-17T12:38:02.745Z,16.90
2017-10-17T12:40:31.158Z,16.90
2017-10-17T12:42:59.490Z,16.90
2017-10-17T12:45:27.815Z,16.90
2017-10-17T12:47:56.149Z,16.90
2017-10-17T12:50:24.547Z,16.90
2017-10-17T12:52:52.856Z,16.90
2017-10-17T12:55:21.254Z,16.90
2017-10-17T12:57:49.581Z,16.90
2017-10-17T13:00:17.902Z,16.80
2017-10-17T13:02:46.211Z,16.80
2017-10-17T13:05:15.304Z,16.70
2017-10-17T13:07:44.481Z,16.70
2017-10-17T13:10:13.382Z,16.70
2017-10-17T13:12:41.721Z,16.70
2017-10-17T13:15:10.131Z,16.70
2017-10-17T13:17:38.458Z,16.60
2017-10-17T13:20:07.576Z,16.60
2017-10-17T13:22:35.899Z,16.60
2017-10-17T13:25:05.073Z,16.60
2017-10-17T13:27:33.386Z,16.60
2017-10-17T13:30:01.702Z,16.60
2017-10-17T13:32:30.046Z,16.60
2017-10-17T13:34:58.377Z,16.60
2017-10-17T13:37:26.694Z,16.60
2017-10-17T13:39:55.021Z,16.60
2017-10-17T13:42:24.128Z,16.50
2017-10-17T13:44:53.202Z,16.50
2017-10-17T13:47:21.524Z,16.40
2017-10-17T13:49:49.832Z,16.40
2017-10-17T13:52:18.155Z,16.40
2017-10-17T13:54:48.118Z,16.40
2017-10-17T13:57:16.451Z,16.40
2017-10-17T13:59:45.596Z,16.40
2017-10-17T14:02:13.913Z,16.40
2017-10-17T14:04:42.310Z,16.30
2017-10-17T14:07:10.662Z,16.30
2017-10-17T14:09:38.993Z,16.30
2017-10-17T14:12:08.089Z,16.30
2017-10-17T14:14:37.178Z,16.20
2017-10-17T14:17:05.493Z,16.20
2017-10-17T14:19:33.847Z,16.20
2017-10-17T14:22:02.164Z,16.20
2017-10-17T14:24:30.476Z,16.20
2017-10-17T14:26:59.559Z,16.20
2017-10-17T14:29:27.896Z,16.10
2017-10-17T14:31:56.986Z,16.20
2017-10-17T14:34:25.385Z,16.20
2017-10-17T14:36:53.737Z,16.10
2017-10-17T14:39:22.059Z,16.10
2017-10-17T14:41:50.466Z,16.10
2017-10-17T14:44:18.839Z,16.10
2017-10-17T14:46:47.190Z,16.10
2017-10-17T14:49:16.260Z,16.10
2017-10-17T14:51:44.682Z,16.10
2017-10-17T14:54:13.780Z,16.10
2017-10-17T14:56:42.124Z,16.10
2017-10-17T14:59:10.441Z,16.10
2017-10-17T15:01:39.511Z,16.10
2017-10-17T15:04:07.840Z,16.10
2017-10-17T15:06:36.144Z,16.10
2017-10-17T15:09:04.443Z,16.10
2017-10-17T15:11:32.777Z,16.20
2017-10-17T15:14:01.103Z,16.20
2017-10-17T15:16:29.416Z,16.20
2017-10-17T15:18:58.519Z,16.10
2017-10-17T15:21:27.642Z,16.10
2017-10-17T15:23:55.969Z,16.10
2017-10-17T15:26:24.279Z,16.10
2017-10-17T15:28:53.368Z,16.10
2017-10-17T15:31:21.721Z,16.10
2017-10-17T15:33:50.023Z,16.10
2017-10-17T15:36:18.356Z,16.10
2017-10-17T15:38:46.755Z,16.10
2017-10-17T15:41:15.108Z,16.10
2017-10-17T15:43:43.524Z,16.10
2017-10-17T15:46:11.841Z,16.10
2017-10-17T15:48:40.169Z,16.00
2017-10-17T15:51:08.475Z,16.00
2017-10-17T15:53:36.825Z,16.00
2017-10-17T15:56:05.138Z,16.00
2017-10-17T15:58:33.455Z,16.00
2017-10-17T16:01:02.581Z,16.00
2017-10-17T16:03:31.051Z,16.00
2017-10-17T16:06:00.187Z,15.90
2017-10-17T16:08:29.127Z,15.90
2017-10-17T16:10:57.445Z,15.90
2017-10-17T16:13:25.773Z,15.80
2017-10-17T16:15:54.103Z,15.80
2017-10-17T16:18:22.611Z,15.80
2017-10-17T16:20:50.940Z,15.80
2017-10-17T16:23:20.046Z,15.70
2017-10-17T16:25:49.117Z,15.70
2017-10-17T16:28:17.441Z,15.60
2017-10-17T16:30:45.815Z,15.60
2017-10-17T16:33:14.893Z,15.60
2017-10-17T16:35:43.224Z,15.60
2017-10-17T16:38:11.550Z,15.60
2017-10-17T16:40:39.891Z,15.50
2017-10-17T16:43:08.213Z,15.50
2017-10-17T16:45:36.548Z,15.50
2017-10-17T16:48:04.863Z,15.40
2017-10-17T16:50:33.195Z,15.40
2017-10-17T16:53:01.523Z,15.30
2017-10-17T16:55:29.858Z,15.30
2017-10-17T16:57:58.175Z,15.30
2017-10-17T17:00:26.529Z,15.20
2017-10-17T17:02:54.893Z,15.20
2017-10-17T17:05:23.974Z,15.00
2017-10-17T17:07:52.287Z,15.00
2017-10-17T17:10:20.625Z,14.90
2017-10-17T17:12:49.205Z,14.90
2017-10-17T17:15:17.533Z,14.80
2017-10-17T17:17:45.855Z,14.70
2017-10-17T17:20:14.164Z,14.70
2017-10-17T17:22:42.485Z,14.60
2017-10-17T17:25:10.799Z,14.60
2017-10-17T17:27:39.115Z,14.50
2017-10-17T17:30:08.193Z,14.50
2017-10-17T17:32:36.508Z,14.40
2017-10-17T17:35:04.841Z,14.40
2017-10-17T17:37:33.171Z,14.30
2017-10-17T17:40:02.246Z,14.30
2017-10-17T17:42:32.178Z,14.20
2017-10-17T17:45:01.267Z,14.20
2017-10-17T17:47:29.591Z,14.20
2017-10-17T17:49:57.910Z,14.20
2017-10-17T17:52:26.231Z,14.20
2017-10-17T17:54:55.313Z,14.10
2017-10-17T17:57:24.427Z,14.10
2017-10-17T17:59:53.491Z,14.10
2017-10-17T18:02:22.763Z,14.10
2017-10-17T18:04:51.131Z,14.10
2017-10-17T18:07:23.454Z,14.10
2017-10-17T18:09:51.841Z,14.00
2017-10-17T18:12:20.275Z,14.00
2017-10-17T18:14:49.433Z,14.00
2017-10-17T18:17:18.843Z,13.90
2017-10-17T18:19:47.189Z,13.90
2017-10-17T18:22:15.497Z,13.90
2017-10-17T18:24:43.819Z,13.90
2017-10-17T18:27:22.758Z,13.90
2017-10-17T18:29:56.369Z,13.80
2017-10-17T18:32:30.792Z,13.80
2017-10-17T18:35:01.449Z,13.70
2017-10-17T18:37:34.467Z,13.70
2017-10-17T18:40:07.023Z,13.70
2017-10-17T18:42:41.433Z,13.70
2017-10-17T18:45:17.747Z,13.60
2017-10-17T18:47:48.034Z,13.60
2017-10-17T18:50:24.763Z,13.60
2017-10-17T18:52:54.720Z,13.50
2017-10-17T18:55:24.718Z,13.50
2017-10-17T18:57:58.139Z,13.50
2017-10-17T19:00:31.460Z,13.50
2017-10-17T19:03:04.571Z,13.50
2017-10-17T19:05:32.994Z,13.50
2017-10-17T19:08:01.317Z,13.40
2017-10-17T19:10:29.655Z,13.40
2017-10-17T19:12:58.033Z,13.40
2017-10-17T19:15:26.539Z,13.40
2017-10-17T19:17:54.858Z,13.30
2017-10-17T19:20:23.183Z,13.30
2017-10-17T19:22:51.590Z,13.30
2017-10-17T19:25:19.908Z,13.30
2017-10-17T19:27:48.214Z,13.20
2017-10-17T19:30:16.537Z,13.20
2017-10-17T19:32:44.868Z,13.20
2017-10-17T19:35:13.167Z,13.20
2017-10-17T19:37:41.497Z,13.20
2017-10-17T19:40:10.566Z,13.10
2017-10-17T19:42:38.871Z,13.10
2017-10-17T19:45:07.997Z,13.10
2017-10-17T19:47:36.300Z,13.10
2017-10-17T19:50:04.632Z,13.10
2017-10-17T19:52:33.730Z,13.00
2017-10-17T19:55:02.824Z,13.00
2017-10-17T19:57:31.140Z,13.00
2017-10-17T19:59:59.466Z,13.00
2017-10-17T20:02:27.918Z,13.00
2017-10-17T20:04:56.228Z,12.90
2017-10-17T20:07:25.267Z,12.90
2017-10-17T20:09:54.361Z,12.90
2017-10-17T20:12:23.458Z,12.90
2017-10-17T20:14:52.548Z,12.90
2017-10-17T20:17:21.640Z,12.90
2017-10-17T20:19:49.981Z,12.90
2017-10-17T20:22:18.285Z,12.90
2017-10-17T20:24:46.589Z,12.90
2017-10-17T20:27:14.923Z,12.80
2017-10-17T20:29:43.311Z,12.80
2017-10-17T20:32:11.664Z,12.80
2017-10-17T20:34:39.972Z,12.80
2017-10-17T20:37:08.322Z,12.80
2017-10-17T20:39:36.701Z,12.80
2017-10-17T20:42:05.014Z,12.70
2017-10-17T20:44:33.338Z,12.70
2017-10-17T20:47:01.749Z,12.70
2017-10-17T20:49:30.066Z,12.70
2017-10-17T20:51:58.402Z,12.70
2017-10-17T20:54:27.501Z,12.70
2017-10-17T20:56:56.596Z,12.70
2017-10-17T20:59:25.674Z,12.70
2017-10-17T21:01:54.000Z,12.70
2017-10-17T21:04:22.339Z,12.70
2017-10-17T21:06:50.672Z,12.70
2017-10-17T21:09:19.442Z,12.70
2017-10-17T21:11:47.757Z,12.70
2017-10-17T21:14:16.104Z,12.70
2017-10-17T21:16:44.431Z,12.70
2017-10-17T21:19:12.767Z,12.70
2017-10-17T21:21:41.078Z,12.70
2017-10-17T21:24:09.384Z,12.70
2017-10-17T21:26:37.704Z,12.60
2017-10-17T21:29:06.804Z,12.60
2017-10-17T21:31:35.896Z,12.60
2017-10-17T21:34:04.995Z,12.60
2017-10-17T21:36:34.061Z,12.60
2017-10-17T21:39:02.370Z,12.60
2017-10-17T21:41:31.472Z,12.60
2017-10-17T21:44:00.557Z,12.50
2017-10-17T21:46:28.876Z,12.50
2017-10-17T21:48:57.206Z,12.50
2017-10-17T21:51:25.557Z,12.50
2017-10-17T21:53:53.870Z,12.50
2017-10-17T21:56:22.173Z,12.40
2017-10-17T21:58:51.253Z,12.40
2017-10-17T22:01:19.612Z,12.30
2017-10-17T22:03:47.981Z,12.30
2017-10-17T22:06:16.302Z,12.30
2017-10-17T22:08:44.635Z,12.30
2017-10-17T22:11:12.967Z,12.30
2017-10-17T22:13:42.053Z,12.30
2017-10-17T22:16:10.372Z,12.30
2017-10-17T22:18:39.463Z,12.20
2017-10-17T22:21:08.537Z,12.20
2017-10-17T22:23:36.841Z,12.20
2017-10-17T22:26:05.914Z,12.20
2017-10-17T22:28:34.238Z,12.20
2017-10-17T22:31:02.561Z,12.20
2017-10-17T22:33:30.968Z,12.20
2017-10-17T22:35:59.285Z,12.20
2017-10-17T22:38:27.630Z,12.20
2017-10-17T22:40:55.948Z,12.20
2017-10-17T22:43:25.048Z,12.10
2017-10-17T22:45:53.360Z,12.10
2017-10-17T22:48:21.703Z,12.10
2017-10-17T22:50:50.787Z,12.10
2017-10-17T22:53:19.110Z,12.10
2017-10-17T22:55:47.418Z,12.10
2017-10-17T22:58:15.720Z,12.10
2017-10-17T23:00:44.046Z,12.10
2017-10-17T23:03:13.352Z,12.00
2017-10-17T23:05:41.732Z,12.00
2017-10-17T23:08:10.048Z,12.00
2017-10-17T23:10:38.366Z,12.00
2017-10-17T23:13:07.450Z,12.00
2017-10-17T23:15:35.774Z,12.00
2017-10-17T23:18:21.968Z,12.00
2017-10-17T23:20:50.292Z,12.00
2017-10-17T23:23:18.624Z,11.90
2017-10-17T23:25:46.930Z,11.90
2017-10-17T23:28:15.243Z,11.90
2017-10-17T23:30:43.548Z,11.90
2017-10-17T23:33:11.873Z,11.90
2017-10-17T23:35:40.204Z,11.90
2017-10-17T23:38:09.277Z,12.00
2017-10-17T23:40:37.614Z,12.00
2017-10-17T23:43:05.930Z,12.00
2017-10-17T23:45:34.247Z,12.00
2017-10-17T23:48:07.974Z,12.10
2017-10-17T23:50:36.673Z,12.10
2017-10-17T23:53:04.991Z,12.20
2017-10-17T23:55:33.312Z,12.20
2017-10-17T23:58:04.433Z,12.20
